sensor_id;sensor_type;location;lat;lon;timestamp;temperature;humidity
70214;DHT22;60138;55.808;37.078;2023-07-08T00:00:52;19.17;73.13
70214;DHT22;60138;55.808;37.078;2023-07-08T00:03:19;19.15;73.40
70214;DHT22;60138;55.808;37.078;2023-07-08T00:05:47;19.14;72.72
70214;DHT22;60138;55.808;37.078;2023-07-08T00:08:14;19.11;73.22
70214;DHT22;60138;55.808;37.078;2023-07-08T00:10:40;19.11;73.88
70214;DHT22;60138;55.808;37.078;2023-07-08T00:13:08;19.09;74.44
70214;DHT22;60138;55.808;37.078;2023-07-08T00:15:35;19.06;74.25
70214;DHT22;60138;55.808;37.078;2023-07-08T00:18:05;19.06;73.18
70214;DHT22;60138;55.808;37.078;2023-07-08T00:23:11;18.99;72.54
70214;DHT22;60138;55.808;37.078;2023-07-08T00:25:37;19.01;73.35
70214;DHT22;60138;55.808;37.078;2023-07-08T00:28:13;18.99;73.93
70214;DHT22;60138;55.808;37.078;2023-07-08T00:30:39;18.99;74.08
70214;DHT22;60138;55.808;37.078;2023-07-08T00:33:05;18.98;73.28
70214;DHT22;60138;55.808;37.078;2023-07-08T00:35:35;18.95;73.16
70214;DHT22;60138;55.808;37.078;2023-07-08T00:38:07;18.93;73.33
70214;DHT22;60138;55.808;37.078;2023-07-08T00:40:36;18.89;72.76
70214;DHT22;60138;55.808;37.078;2023-07-08T00:43:05;18.89;72.66
70214;DHT22;60138;55.808;37.078;2023-07-08T00:45:42;18.87;72.50
70214;DHT22;60138;55.808;37.078;2023-07-08T00:48:22;18.82;72.42
70214;DHT22;60138;55.808;37.078;2023-07-08T00:50:49;18.81;72.44
70214;DHT22;60138;55.808;37.078;2023-07-08T00:53:35;18.83;73.27
70214;DHT22;60138;55.808;37.078;2023-07-08T00:56:08;18.91;72.78
70214;DHT22;60138;55.808;37.078;2023-07-08T00:58:41;19.00;72.96
70214;DHT22;60138;55.808;37.078;2023-07-08T01:01:08;19.09;73.12
70214;DHT22;60138;55.808;37.078;2023-07-08T01:03:45;19.15;72.69
70214;DHT22;60138;55.808;37.078;2023-07-08T01:06:13;19.24;72.26
70214;DHT22;60138;55.808;37.078;2023-07-08T01:08:38;19.29;74.49
70214;DHT22;60138;55.808;37.078;2023-07-08T01:11:04;19.35;74.04
70214;DHT22;60138;55.808;37.078;2023-07-08T01:13:40;19.33;73.32
70214;DHT22;60138;55.808;37.078;2023-07-08T01:16:07;19.37;73.14
70214;DHT22;60138;55.808;37.078;2023-07-08T01:18:34;19.43;72.64
70214;DHT22;60138;55.808;37.078;2023-07-08T01:21:02;19.46;72.80
70214;DHT22;60138;55.808;37.078;2023-07-08T01:23:29;19.51;72.30
70214;DHT22;60138;55.808;37.078;2023-07-08T01:25:54;19.53;72.06
70214;DHT22;60138;55.808;37.078;2023-07-08T01:28:20;19.53;72.62
70214;DHT22;60138;55.808;37.078;2023-07-08T01:30:48;19.54;71.93
70214;DHT22;60138;55.808;37.078;2023-07-08T01:33:20;19.52;72.91
70214;DHT22;60138;55.808;37.078;2023-07-08T01:35:46;19.53;74.05
70214;DHT22;60138;55.808;37.078;2023-07-08T01:38:14;19.52;73.03
70214;DHT22;60138;55.808;37.078;2023-07-08T01:40:49;19.51;73.45
70214;DHT22;60138;55.808;37.078;2023-07-08T01:43:15;19.47;73.28
70214;DHT22;60138;55.808;37.078;2023-07-08T01:45:41;19.44;73.30
70214;DHT22;60138;55.808;37.078;2023-07-08T01:48:11;19.42;74.75
70214;DHT22;60138;55.808;37.078;2023-07-08T01:50:39;19.38;74.12
70214;DHT22;60138;55.808;37.078;2023-07-08T01:53:11;19.36;72.95
70214;DHT22;60138;55.808;37.078;2023-07-08T01:55:37;19.36;71.18
70214;DHT22;60138;55.808;37.078;2023-07-08T01:58:03;19.35;72.35
70214;DHT22;60138;55.808;37.078;2023-07-08T02:00:28;19.35;72.93
70214;DHT22;60138;55.808;37.078;2023-07-08T02:02:54;19.35;72.34
70214;DHT22;60138;55.808;37.078;2023-07-08T02:05:20;19.35;73.18
70214;DHT22;60138;55.808;37.078;2023-07-08T02:07:46;19.36;73.20
70214;DHT22;60138;55.808;37.078;2023-07-08T02:10:11;19.35;72.92
70214;DHT22;60138;55.808;37.078;2023-07-08T02:12:37;19.36;72.46
70214;DHT22;60138;55.808;37.078;2023-07-08T02:15:05;19.37;72.21
70214;DHT22;60138;55.808;37.078;2023-07-08T02:17:33;19.40;71.67
70214;DHT22;60138;55.808;37.078;2023-07-08T02:20:19;19.42;71.19
70214;DHT22;60138;55.808;37.078;2023-07-08T02:22:44;19.45;71.26
70214;DHT22;60138;55.808;37.078;2023-07-08T02:25:10;19.46;72.00
70214;DHT22;60138;55.808;37.078;2023-07-08T02:27:37;19.44;72.07
70214;DHT22;60138;55.808;37.078;2023-07-08T02:30:03;19.43;71.97
70214;DHT22;60138;55.808;37.078;2023-07-08T02:32:32;19.45;72.06
70214;DHT22;60138;55.808;37.078;2023-07-08T02:34:59;19.43;71.95
70214;DHT22;60138;55.808;37.078;2023-07-08T02:37:24;19.45;72.19
70214;DHT22;60138;55.808;37.078;2023-07-08T02:39:51;19.46;72.35
70214;DHT22;60138;55.808;37.078;2023-07-08T02:42:17;19.50;72.75
70214;DHT22;60138;55.808;37.078;2023-07-08T02:44:43;19.52;73.13
70214;DHT22;60138;55.808;37.078;2023-07-08T02:47:08;19.51;74.56
70214;DHT22;60138;55.808;37.078;2023-07-08T02:49:34;19.48;73.99
70214;DHT22;60138;55.808;37.078;2023-07-08T02:52:00;19.47;73.09
70214;DHT22;60138;55.808;37.078;2023-07-08T02:54:25;19.47;73.32
70214;DHT22;60138;55.808;37.078;2023-07-08T02:56:51;19.47;72.99
70214;DHT22;60138;55.808;37.078;2023-07-08T02:59:17;19.50;72.32
70214;DHT22;60138;55.808;37.078;2023-07-08T03:01:42;19.50;73.47
70214;DHT22;60138;55.808;37.078;2023-07-08T03:04:09;19.48;73.35
70214;DHT22;60138;55.808;37.078;2023-07-08T03:06:35;19.46;73.29
70214;DHT22;60138;55.808;37.078;2023-07-08T03:09:01;19.48;73.57
70214;DHT22;60138;55.808;37.078;2023-07-08T03:11:27;19.47;73.02
70214;DHT22;60138;55.808;37.078;2023-07-08T03:13:52;19.51;71.99
70214;DHT22;60138;55.808;37.078;2023-07-08T03:16:18;19.53;71.64
70214;DHT22;60138;55.808;37.078;2023-07-08T03:18:43;19.57;72.25
70214;DHT22;60138;55.808;37.078;2023-07-08T03:21:09;19.60;72.16
70214;DHT22;60138;55.808;37.078;2023-07-08T03:23:35;19.63;73.06
70214;DHT22;60138;55.808;37.078;2023-07-08T03:26:00;19.63;73.43
70214;DHT22;60138;55.808;37.078;2023-07-08T03:28:27;19.63;72.39
70214;DHT22;60138;55.808;37.078;2023-07-08T03:30:53;19.67;72.30
70214;DHT22;60138;55.808;37.078;2023-07-08T03:33:20;19.71;72.29
70214;DHT22;60138;55.808;37.078;2023-07-08T03:35:46;19.70;72.21
70214;DHT22;60138;55.808;37.078;2023-07-08T03:38:11;19.73;71.36
70214;DHT22;60138;55.808;37.078;2023-07-08T03:40:37;19.77;71.93
70214;DHT22;60138;55.808;37.078;2023-07-08T03:43:03;19.86;71.67
70214;DHT22;60138;55.808;37.078;2023-07-08T03:45:30;20.03;70.47
70214;DHT22;60138;55.808;37.078;2023-07-08T03:47:56;20.06;70.81
70214;DHT22;60138;55.808;37.078;2023-07-08T03:50:24;20.04;70.99
70214;DHT22;60138;55.808;37.078;2023-07-08T03:52:52;19.94;70.95
70214;DHT22;60138;55.808;37.078;2023-07-08T03:55:20;19.89;70.95
70214;DHT22;60138;55.808;37.078;2023-07-08T03:57:46;19.88;70.62
70214;DHT22;60138;55.808;37.078;2023-07-08T04:00:12;19.85;70.82
70214;DHT22;60138;55.808;37.078;2023-07-08T04:02:42;19.85;70.33
70214;DHT22;60138;55.808;37.078;2023-07-08T04:05:16;19.82;70.70
70214;DHT22;60138;55.808;37.078;2023-07-08T04:07:42;19.76;71.33
70214;DHT22;60138;55.808;37.078;2023-07-08T04:10:09;19.72;71.09
70214;DHT22;60138;55.808;37.078;2023-07-08T04:12:35;19.71;71.70
70214;DHT22;60138;55.808;37.078;2023-07-08T04:15:01;19.72;71.34
70214;DHT22;60138;55.808;37.078;2023-07-08T04:17:27;19.77;70.85
70214;DHT22;60138;55.808;37.078;2023-07-08T04:19:53;19.83;71.38
70214;DHT22;60138;55.808;37.078;2023-07-08T04:22:19;19.88;70.64
70214;DHT22;60138;55.808;37.078;2023-07-08T04:24:44;19.92;70.08
70214;DHT22;60138;55.808;37.078;2023-07-08T04:27:15;19.90;70.46
70214;DHT22;60138;55.808;37.078;2023-07-08T04:29:41;19.88;70.50
70214;DHT22;60138;55.808;37.078;2023-07-08T04:32:07;19.95;70.67
70214;DHT22;60138;55.808;37.078;2023-07-08T04:34:33;20.03;69.97
70214;DHT22;60138;55.808;37.078;2023-07-08T04:36:58;20.04;69.61
70214;DHT22;60138;55.808;37.078;2023-07-08T04:39:24;20.07;69.68
70214;DHT22;60138;55.808;37.078;2023-07-08T04:41:50;20.12;69.52
70214;DHT22;60138;55.808;37.078;2023-07-08T04:44:15;20.14;68.92
70214;DHT22;60138;55.808;37.078;2023-07-08T04:46:46;20.06;69.44
70214;DHT22;60138;55.808;37.078;2023-07-08T04:49:12;20.01;69.68
70214;DHT22;60138;55.808;37.078;2023-07-08T04:51:40;20.02;68.99
70214;DHT22;60138;55.808;37.078;2023-07-08T04:54:06;20.07;69.55
70214;DHT22;60138;55.808;37.078;2023-07-08T04:56:46;20.13;68.46
70214;DHT22;60138;55.808;37.078;2023-07-08T04:59:17;20.24;68.94
70214;DHT22;60138;55.808;37.078;2023-07-08T05:01:44;20.39;68.54
70214;DHT22;60138;55.808;37.078;2023-07-08T05:04:14;20.47;68.08
70214;DHT22;60138;55.808;37.078;2023-07-08T05:06:40;20.45;68.02
70214;DHT22;60138;55.808;37.078;2023-07-08T05:09:06;20.48;67.72
70214;DHT22;60138;55.808;37.078;2023-07-08T05:11:32;20.44;67.54
70214;DHT22;60138;55.808;37.078;2023-07-08T05:13:58;20.37;68.23
70214;DHT22;60138;55.808;37.078;2023-07-08T05:16:23;20.30;68.17
70214;DHT22;60138;55.808;37.078;2023-07-08T05:18:49;20.30;67.49
70214;DHT22;60138;55.808;37.078;2023-07-08T05:21:16;20.30;67.83
70214;DHT22;60138;55.808;37.078;2023-07-08T05:23:42;20.29;67.87
70214;DHT22;60138;55.808;37.078;2023-07-08T05:26:07;20.28;67.45
70214;DHT22;60138;55.808;37.078;2023-07-08T05:28:33;20.15;68.11
70214;DHT22;60138;55.808;37.078;2023-07-08T05:30:59;20.22;67.71
70214;DHT22;60138;55.808;37.078;2023-07-08T05:33:27;20.26;67.75
70214;DHT22;60138;55.808;37.078;2023-07-08T05:35:53;20.26;67.73
70214;DHT22;60138;55.808;37.078;2023-07-08T05:38:19;20.25;67.32
70214;DHT22;60138;55.808;37.078;2023-07-08T05:40:49;20.19;67.43
70214;DHT22;60138;55.808;37.078;2023-07-08T05:43:16;20.19;67.33
70214;DHT22;60138;55.808;37.078;2023-07-08T05:45:41;20.21;67.02
70214;DHT22;60138;55.808;37.078;2023-07-08T05:48:07;20.15;67.43
70214;DHT22;60138;55.808;37.078;2023-07-08T05:50:33;20.14;67.26
70214;DHT22;60138;55.808;37.078;2023-07-08T05:52:58;20.13;67.30
70214;DHT22;60138;55.808;37.078;2023-07-08T05:55:24;20.15;67.01
70214;DHT22;60138;55.808;37.078;2023-07-08T05:57:50;20.20;67.20
70214;DHT22;60138;55.808;37.078;2023-07-08T06:00:15;20.27;67.05
70214;DHT22;60138;55.808;37.078;2023-07-08T06:02:41;20.26;66.85
70214;DHT22;60138;55.808;37.078;2023-07-08T06:05:07;20.24;66.88
70214;DHT22;60138;55.808;37.078;2023-07-08T06:07:33;20.29;66.84
70214;DHT22;60138;55.808;37.078;2023-07-08T06:09:58;20.39;66.78
70214;DHT22;60138;55.808;37.078;2023-07-08T06:12:24;20.49;67.20
70214;DHT22;60138;55.808;37.078;2023-07-08T06:14:50;20.56;66.30
70214;DHT22;60138;55.808;37.078;2023-07-08T06:17:17;20.61;66.13
70214;DHT22;60138;55.808;37.078;2023-07-08T06:19:43;20.61;65.96
70214;DHT22;60138;55.808;37.078;2023-07-08T06:22:09;20.73;64.85
70214;DHT22;60138;55.808;37.078;2023-07-08T06:24:35;20.86;64.99
70214;DHT22;60138;55.808;37.078;2023-07-08T06:27:01;21.04;64.97
70214;DHT22;60138;55.808;37.078;2023-07-08T06:29:27;21.20;64.66
70214;DHT22;60138;55.808;37.078;2023-07-08T06:31:53;21.08;63.53
70214;DHT22;60138;55.808;37.078;2023-07-08T06:34:19;21.07;64.01
70214;DHT22;60138;55.808;37.078;2023-07-08T06:36:45;21.20;64.19
70214;DHT22;60138;55.808;37.078;2023-07-08T06:39:10;21.31;63.83
70214;DHT22;60138;55.808;37.078;2023-07-08T06:41:37;21.29;63.85
70214;DHT22;60138;55.808;37.078;2023-07-08T06:44:03;21.19;63.64
70214;DHT22;60138;55.808;37.078;2023-07-08T06:46:31;21.11;63.76
70214;DHT22;60138;55.808;37.078;2023-07-08T06:48:56;21.04;64.02
70214;DHT22;60138;55.808;37.078;2023-07-08T06:51:22;21.01;63.92
70214;DHT22;60138;55.808;37.078;2023-07-08T06:53:48;21.01;64.28
70214;DHT22;60138;55.808;37.078;2023-07-08T06:56:13;21.17;64.06
70214;DHT22;60138;55.808;37.078;2023-07-08T06:58:39;21.36;63.63
70214;DHT22;60138;55.808;37.078;2023-07-08T07:01:05;21.60;63.26
70214;DHT22;60138;55.808;37.078;2023-07-08T07:03:30;21.77;62.79
70214;DHT22;60138;55.808;37.078;2023-07-08T07:05:56;21.91;62.34
70214;DHT22;60138;55.808;37.078;2023-07-08T07:08:22;21.90;61.63
70214;DHT22;60138;55.808;37.078;2023-07-08T07:10:47;21.97;60.46
70214;DHT22;60138;55.808;37.078;2023-07-08T07:13:13;22.14;61.30
70214;DHT22;60138;55.808;37.078;2023-07-08T07:15:39;22.32;60.25
70214;DHT22;60138;55.808;37.078;2023-07-08T07:18:05;22.52;60.26
70214;DHT22;60138;55.808;37.078;2023-07-08T07:20:31;22.55;58.37
70214;DHT22;60138;55.808;37.078;2023-07-08T07:22:57;22.55;59.10
70214;DHT22;60138;55.808;37.078;2023-07-08T07:25:22;22.58;57.90
70214;DHT22;60138;55.808;37.078;2023-07-08T07:27:48;22.63;57.57
70214;DHT22;60138;55.808;37.078;2023-07-08T07:30:14;22.79;57.97
70214;DHT22;60138;55.808;37.078;2023-07-08T07:32:41;23.01;57.37
70214;DHT22;60138;55.808;37.078;2023-07-08T07:35:07;23.09;57.84
70214;DHT22;60138;55.808;37.078;2023-07-08T07:37:33;22.94;55.65
70214;DHT22;60138;55.808;37.078;2023-07-08T07:39:59;22.65;56.54
70214;DHT22;60138;55.808;37.078;2023-07-08T07:42:27;22.39;57.37
70214;DHT22;60138;55.808;37.078;2023-07-08T07:44:53;22.37;58.27
70214;DHT22;60138;55.808;37.078;2023-07-08T07:47:18;22.50;58.08
70214;DHT22;60138;55.808;37.078;2023-07-08T07:49:44;22.76;58.20
70214;DHT22;60138;55.808;37.078;2023-07-08T07:52:10;22.91;58.74
70214;DHT22;60138;55.808;37.078;2023-07-08T07:54:38;22.99;56.70
70214;DHT22;60138;55.808;37.078;2023-07-08T07:57:04;23.00;57.51
70214;DHT22;60138;55.808;37.078;2023-07-08T07:59:30;23.02;55.17
70214;DHT22;60138;55.808;37.078;2023-07-08T08:01:56;23.14;57.16
70214;DHT22;60138;55.808;37.078;2023-07-08T08:04:21;23.30;55.45
70214;DHT22;60138;55.808;37.078;2023-07-08T08:06:47;23.38;55.92
70214;DHT22;60138;55.808;37.078;2023-07-08T08:09:13;23.39;55.64
70214;DHT22;60138;55.808;37.078;2023-07-08T08:11:38;23.74;54.59
70214;DHT22;60138;55.808;37.078;2023-07-08T08:14:04;24.00;54.77
70214;DHT22;60138;55.808;37.078;2023-07-08T08:16:30;24.14;53.43
70214;DHT22;60138;55.808;37.078;2023-07-08T08:18:56;24.03;54.20
70214;DHT22;60138;55.808;37.078;2023-07-08T08:21:22;23.95;53.84
70214;DHT22;60138;55.808;37.078;2023-07-08T08:23:47;23.72;52.74
70214;DHT22;60138;55.808;37.078;2023-07-08T08:26:13;23.41;53.47
70214;DHT22;60138;55.808;37.078;2023-07-08T08:28:40;23.08;53.81
70214;DHT22;60138;55.808;37.078;2023-07-08T08:31:06;23.03;53.72
70214;DHT22;60138;55.808;37.078;2023-07-08T08:33:31;23.08;52.92
70214;DHT22;60138;55.808;37.078;2023-07-08T08:35:57;23.18;53.89
70214;DHT22;60138;55.808;37.078;2023-07-08T08:38:23;23.40;51.88
70214;DHT22;60138;55.808;37.078;2023-07-08T08:40:48;23.58;53.59
70214;DHT22;60138;55.808;37.078;2023-07-08T08:43:30;23.70;50.99
70214;DHT22;60138;55.808;37.078;2023-07-08T08:46:16;23.77;52.18
70214;DHT22;60138;55.808;37.078;2023-07-08T08:51:30;24.08;48.08
70214;DHT22;60138;55.808;37.078;2023-07-08T08:53:57;24.12;51.43
70214;DHT22;60138;55.808;37.078;2023-07-08T08:56:57;24.29;49.06
70214;DHT22;60138;55.808;37.078;2023-07-08T08:59:50;24.36;47.44
70214;DHT22;60138;55.808;37.078;2023-07-08T09:05:04;24.45;48.48
70214;DHT22;60138;55.808;37.078;2023-07-08T09:08:18;24.63;46.56
70214;DHT22;60138;55.808;37.078;2023-07-08T09:10:39;24.59;45.22
70214;DHT22;60138;55.808;37.078;2023-07-08T09:13:15;24.57;46.18
70214;DHT22;60138;55.808;37.078;2023-07-08T09:15:42;24.43;48.24
70214;DHT22;60138;55.808;37.078;2023-07-08T09:18:19;24.26;46.58
70214;DHT22;60138;55.808;37.078;2023-07-08T09:20:46;24.10;47.18
70214;DHT22;60138;55.808;37.078;2023-07-08T09:23:30;24.06;49.97
70214;DHT22;60138;55.808;37.078;2023-07-08T09:26:07;23.99;49.17
70214;DHT22;60138;55.808;37.078;2023-07-08T09:28:46;24.05;47.40
70214;DHT22;60138;55.808;37.078;2023-07-08T09:31:31;23.96;47.01
70214;DHT22;60138;55.808;37.078;2023-07-08T09:34:36;23.85;46.22
70214;DHT22;60138;55.808;37.078;2023-07-08T09:37:02;23.76;47.05
70214;DHT22;60138;55.808;37.078;2023-07-08T09:39:27;23.69;49.38
70214;DHT22;60138;55.808;37.078;2023-07-08T09:41:53;23.79;49.47
70214;DHT22;60138;55.808;37.078;2023-07-08T09:44:27;23.83;48.52
70214;DHT22;60138;55.808;37.078;2023-07-08T09:46:53;23.64;47.33
70214;DHT22;60138;55.808;37.078;2023-07-08T09:49:23;23.68;49.51
70214;DHT22;60138;55.808;37.078;2023-07-08T09:51:50;23.94;49.56
70214;DHT22;60138;55.808;37.078;2023-07-08T09:54:18;24.14;48.38
70214;DHT22;60138;55.808;37.078;2023-07-08T09:56:52;24.33;48.51
70214;DHT22;60138;55.808;37.078;2023-07-08T09:59:19;24.71;49.39
70214;DHT22;60138;55.808;37.078;2023-07-08T10:01:47;25.06;48.05
70214;DHT22;60138;55.808;37.078;2023-07-08T10:04:12;25.00;44.96
70214;DHT22;60138;55.808;37.078;2023-07-08T10:06:38;25.03;46.25
70214;DHT22;60138;55.808;37.078;2023-07-08T10:09:18;24.97;47.25
70214;DHT22;60138;55.808;37.078;2023-07-08T10:11:48;24.93;48.42
70214;DHT22;60138;55.808;37.078;2023-07-08T10:16:53;24.73;44.45
70214;DHT22;60138;55.808;37.078;2023-07-08T10:19:20;24.58;44.65
70214;DHT22;60138;55.808;37.078;2023-07-08T10:25:09;24.79;44.92
70214;DHT22;60138;55.808;37.078;2023-07-08T10:27:48;24.79;44.06
70214;DHT22;60138;55.808;37.078;2023-07-08T10:30:39;25.01;44.13
70214;DHT22;60138;55.808;37.078;2023-07-08T10:41:43;24.54;45.98
70214;DHT22;60138;55.808;37.078;2023-07-08T10:44:21;24.39;46.54
70214;DHT22;60138;55.808;37.078;2023-07-08T10:52:57;25.20;46.54
70214;DHT22;60138;55.808;37.078;2023-07-08T10:58:03;25.50;42.48
70214;DHT22;60138;55.808;37.078;2023-07-08T11:03:27;25.79;42.41
70214;DHT22;60138;55.808;37.078;2023-07-08T11:06:01;25.96;44.88
70214;DHT22;60138;55.808;37.078;2023-07-08T11:08:44;26.13;40.89
70214;DHT22;60138;55.808;37.078;2023-07-08T11:14:34;25.93;42.63
70214;DHT22;60138;55.808;37.078;2023-07-08T11:17:23;26.16;44.23
70214;DHT22;60138;55.808;37.078;2023-07-08T11:20:03;25.96;40.76
70214;DHT22;60138;55.808;37.078;2023-07-08T11:22:42;25.94;43.13
70214;DHT22;60138;55.808;37.078;2023-07-08T11:25:17;26.01;39.94
70214;DHT22;60138;55.808;37.078;2023-07-08T11:27:46;25.96;43.06
70214;DHT22;60138;55.808;37.078;2023-07-08T11:30:14;26.01;42.68
70214;DHT22;60138;55.808;37.078;2023-07-08T11:32:43;25.76;38.03
70214;DHT22;60138;55.808;37.078;2023-07-08T11:38:04;26.23;39.78
70214;DHT22;60138;55.808;37.078;2023-07-08T11:40:30;26.41;39.85
70214;DHT22;60138;55.808;37.078;2023-07-08T11:43:03;26.40;40.38
70214;DHT22;60138;55.808;37.078;2023-07-08T11:45:38;26.60;38.39
70214;DHT22;60138;55.808;37.078;2023-07-08T11:48:25;27.07;39.43
70214;DHT22;60138;55.808;37.078;2023-07-08T11:50:53;28.04;33.85
70214;DHT22;60138;55.808;37.078;2023-07-08T11:55:57;28.54;36.74
70214;DHT22;60138;55.808;37.078;2023-07-08T11:58:26;28.70;35.03
70214;DHT22;60138;55.808;37.078;2023-07-08T12:03:49;30.83;31.27
70214;DHT22;60138;55.808;37.078;2023-07-08T12:08:58;32.17;32.09
70214;DHT22;60138;55.808;37.078;2023-07-08T12:11:27;31.82;26.41
70214;DHT22;60138;55.808;37.078;2023-07-08T12:13:59;31.85;23.10
70214;DHT22;60138;55.808;37.078;2023-07-08T12:16:28;32.59;25.13
70214;DHT22;60138;55.808;37.078;2023-07-08T12:18:54;32.42;28.77
70214;DHT22;60138;55.808;37.078;2023-07-08T12:21:22;31.31;32.70
70214;DHT22;60138;55.808;37.078;2023-07-08T12:23:48;31.73;33.96
70214;DHT22;60138;55.808;37.078;2023-07-08T12:26:15;33.77;27.69
70214;DHT22;60138;55.808;37.078;2023-07-08T12:28:42;35.50;28.02
70214;DHT22;60138;55.808;37.078;2023-07-08T12:31:19;37.11;25.84
70214;DHT22;60138;55.808;37.078;2023-07-08T12:33:46;38.14;26.53
70214;DHT22;60138;55.808;37.078;2023-07-08T12:36:20;38.67;19.47
70214;DHT22;60138;55.808;37.078;2023-07-08T12:38:48;39.20;27.40
70214;DHT22;60138;55.808;37.078;2023-07-08T12:41:21;40.36;18.01
70214;DHT22;60138;55.808;37.078;2023-07-08T12:43:47;39.91;13.25
70214;DHT22;60138;55.808;37.078;2023-07-08T12:46:15;38.71;19.58
70214;DHT22;60138;55.808;37.078;2023-07-08T12:48:42;38.48;21.94
70214;DHT22;60138;55.808;37.078;2023-07-08T12:51:13;38.21;15.39
70214;DHT22;60138;55.808;37.078;2023-07-08T12:53:40;38.58;23.59
70214;DHT22;60138;55.808;37.078;2023-07-08T12:56:05;37.89;19.06
70214;DHT22;60138;55.808;37.078;2023-07-08T12:58:34;37.94;26.49
70214;DHT22;60138;55.808;37.078;2023-07-08T13:01:02;39.37;27.81
70214;DHT22;60138;55.808;37.078;2023-07-08T13:03:34;39.25;22.84
70214;DHT22;60138;55.808;37.078;2023-07-08T13:06:01;38.53;14.71
70214;DHT22;60138;55.808;37.078;2023-07-08T13:08:30;38.41;16.61
70214;DHT22;60138;55.808;37.078;2023-07-08T13:11:00;38.02;15.29
70214;DHT22;60138;55.808;37.078;2023-07-08T13:13:34;38.30;22.99
70214;DHT22;60138;55.808;37.078;2023-07-08T13:16:01;38.89;19.54
70214;DHT22;60138;55.808;37.078;2023-07-08T13:18:35;39.14;14.67
70214;DHT22;60138;55.808;37.078;2023-07-08T13:21:03;39.04;14.71
70214;DHT22;60138;55.808;37.078;2023-07-08T13:23:30;38.58;22.74
70214;DHT22;60138;55.808;37.078;2023-07-08T13:25:56;38.00;15.60
70214;DHT22;60138;55.808;37.078;2023-07-08T13:28:27;38.52;20.02
70214;DHT22;60138;55.808;37.078;2023-07-08T13:31:13;39.89;19.38
70214;DHT22;60138;55.808;37.078;2023-07-08T13:33:45;39.98;15.50
70214;DHT22;60138;55.808;37.078;2023-07-08T13:36:13;39.94;21.11
70214;DHT22;60138;55.808;37.078;2023-07-08T13:38:40;40.26;14.84
70214;DHT22;60138;55.808;37.078;2023-07-08T13:41:07;40.03;13.94
70214;DHT22;60138;55.808;37.078;2023-07-08T13:43:35;39.35;12.84
70214;DHT22;60138;55.808;37.078;2023-07-08T13:46:02;37.21;15.01
70214;DHT22;60138;55.808;37.078;2023-07-08T13:48:30;36.19;20.41
70214;DHT22;60138;55.808;37.078;2023-07-08T13:51:06;36.37;22.92
70214;DHT22;60138;55.808;37.078;2023-07-08T13:56:11;36.33;19.95
70214;DHT22;60138;55.808;37.078;2023-07-08T13:58:43;36.29;20.75
70214;DHT22;60138;55.808;37.078;2023-07-08T14:01:16;36.45;22.95
70214;DHT22;60138;55.808;37.078;2023-07-08T14:03:42;37.92;22.79
70214;DHT22;60138;55.808;37.078;2023-07-08T14:06:20;38.82;14.68
70214;DHT22;60138;55.808;37.078;2023-07-08T14:08:46;39.52;17.04
70214;DHT22;60138;55.808;37.078;2023-07-08T14:11:12;39.73;19.03
70214;DHT22;60138;55.808;37.078;2023-07-08T14:13:38;39.69;16.78
70214;DHT22;60138;55.808;37.078;2023-07-08T14:16:08;40.22;16.42
70214;DHT22;60138;55.808;37.078;2023-07-08T14:18:35;40.78;18.04
70214;DHT22;60138;55.808;37.078;2023-07-08T14:21:01;41.31;22.31
70214;DHT22;60138;55.808;37.078;2023-07-08T14:23:27;41.26;21.32
70214;DHT22;60138;55.808;37.078;2023-07-08T14:25:52;40.58;20.87
70214;DHT22;60138;55.808;37.078;2023-07-08T14:28:18;40.85;12.34
70214;DHT22;60138;55.808;37.078;2023-07-08T14:30:46;40.06;13.08
70214;DHT22;60138;55.808;37.078;2023-07-08T14:33:13;39.96;16.27
70214;DHT22;60138;55.808;37.078;2023-07-08T14:35:39;39.07;16.85
70214;DHT22;60138;55.808;37.078;2023-07-08T14:38:12;37.26;15.51
70214;DHT22;60138;55.808;37.078;2023-07-08T14:40:40;36.37;19.63
70214;DHT22;60138;55.808;37.078;2023-07-08T14:43:13;35.50;20.48
70214;DHT22;60138;55.808;37.078;2023-07-08T14:45:42;35.13;19.16
70214;DHT22;60138;55.808;37.078;2023-07-08T14:48:12;35.00;19.72
70214;DHT22;60138;55.808;37.078;2023-07-08T14:50:38;34.56;22.76
70214;DHT22;60138;55.808;37.078;2023-07-08T14:53:04;33.68;20.76
70214;DHT22;60138;55.808;37.078;2023-07-08T14:55:30;33.20;23.91
70214;DHT22;60138;55.808;37.078;2023-07-08T14:57:56;33.40;22.47
70214;DHT22;60138;55.808;37.078;2023-07-08T15:00:23;34.65;24.25
70214;DHT22;60138;55.808;37.078;2023-07-08T15:02:50;35.84;22.95
70214;DHT22;60138;55.808;37.078;2023-07-08T15:05:22;36.84;20.89
70214;DHT22;60138;55.808;37.078;2023-07-08T15:07:52;37.72;22.91
70214;DHT22;60138;55.808;37.078;2023-07-08T15:10:19;37.89;17.51
70214;DHT22;60138;55.808;37.078;2023-07-08T15:12:45;36.90;15.13
70214;DHT22;60138;55.808;37.078;2023-07-08T15:15:37;36.85;16.73
70214;DHT22;60138;55.808;37.078;2023-07-08T15:18:12;36.57;16.57
70214;DHT22;60138;55.808;37.078;2023-07-08T15:20:39;36.13;19.27
70214;DHT22;60138;55.808;37.078;2023-07-08T15:23:06;35.71;18.06
70214;DHT22;60138;55.808;37.078;2023-07-08T15:25:32;34.98;17.28
70214;DHT22;60138;55.808;37.078;2023-07-08T15:27:57;33.63;19.02
70214;DHT22;60138;55.808;37.078;2023-07-08T15:30:25;32.60;20.22
70214;DHT22;60138;55.808;37.078;2023-07-08T15:32:52;31.92;22.53
70214;DHT22;60138;55.808;37.078;2023-07-08T15:35:21;31.48;22.72
70214;DHT22;60138;55.808;37.078;2023-07-08T15:37:47;30.77;23.85
70214;DHT22;60138;55.808;37.078;2023-07-08T15:40:15;30.38;24.39
70214;DHT22;60138;55.808;37.078;2023-07-08T15:42:42;30.26;25.07
70214;DHT22;60138;55.808;37.078;2023-07-08T15:47:38;29.70;25.59
70214;DHT22;60138;55.808;37.078;2023-07-08T15:50:10;29.46;25.84
70214;DHT22;60138;55.808;37.078;2023-07-08T15:52:36;29.27;26.27
70214;DHT22;60138;55.808;37.078;2023-07-08T15:55:02;29.17;26.91
70214;DHT22;60138;55.808;37.078;2023-07-08T15:57:29;29.06;27.00
70214;DHT22;60138;55.808;37.078;2023-07-08T15:59:55;28.92;27.64
70214;DHT22;60138;55.808;37.078;2023-07-08T16:02:26;28.74;27.88
70214;DHT22;60138;55.808;37.078;2023-07-08T16:04:52;28.56;28.20
70214;DHT22;60138;55.808;37.078;2023-07-08T16:07:18;28.43;28.58
70214;DHT22;60138;55.808;37.078;2023-07-08T16:09:44;28.31;29.03
70214;DHT22;60138;55.808;37.078;2023-07-08T16:12:12;28.20;28.74
70214;DHT22;60138;55.808;37.078;2023-07-08T16:14:41;28.10;29.22
70214;DHT22;60138;55.808;37.078;2023-07-08T16:17:09;28.11;29.34